createdAt,value
2017-09-10T00:01:21.890Z,13.40
2017-09-10T00:03:49.368Z,13.40
2017-09-10T00:06:16.841Z,13.50
2017-09-10T00:08:45.090Z,13.40
2017-09-10T00:11:12.566Z,13.40
2017-09-10T00:13:40.072Z,13.40
2017-09-10T00:16:07.558Z,13.30
2017-09-10T00:18:35.049Z,13.30
2017-09-10T00:21:02.517Z,13.30
2017-09-10T00:23:30.027Z,13.30
2017-09-10T00:25:57.512Z,13.30
2017-09-10T00:28:25.768Z,13.20
2017-09-10T00:30:53.251Z,13.20
2017-09-10T00:33:20.740Z,13.30
2017-09-10T00:35:48.223Z,13.30
2017-09-10T00:38:15.712Z,13.40
2017-09-10T00:40:43.203Z,13.50
2017-09-10T00:43:10.714Z,13.50
2017-09-10T00:45:38.212Z,13.40
2017-09-10T00:48:05.687Z,13.30
2017-09-10T00:50:33.196Z,13.40
2017-09-10T00:53:00.674Z,13.50
2017-09-10T00:55:28.163Z,13.50
2017-09-10T00:57:55.635Z,13.50
2017-09-10T01:00:23.132Z,13.50
2017-09-10T01:02:50.622Z,13.50
2017-09-10T01:05:19.214Z,13.40
2017-09-10T01:07:46.702Z,13.30
2017-09-10T01:10:14.193Z,13.40
2017-09-10T01:12:41.686Z,13.50
2017-09-10T01:15:09.191Z,13.40
2017-09-10T01:17:36.683Z,13.30
2017-09-10T01:20:04.954Z,13.40
2017-09-10T01:22:32.460Z,13.40
2017-09-10T01:25:00.785Z,13.50
2017-09-10T01:27:28.252Z,13.50
2017-09-10T01:29:55.734Z,13.50
2017-09-10T01:32:23.217Z,13.50
2017-09-10T01:34:50.708Z,13.50
2017-09-10T01:37:18.179Z,13.50
2017-09-10T01:39:45.683Z,13.50
2017-09-10T01:42:13.178Z,13.60
2017-09-10T01:44:40.674Z,13.50
2017-09-10T01:47:08.920Z,13.40
2017-09-10T01:49:36.385Z,13.40
2017-09-10T01:52:03.879Z,13.40
2017-09-10T01:54:31.354Z,13.50
2017-09-10T01:56:58.842Z,13.50
2017-09-10T01:59:26.325Z,13.30
2017-09-10T02:01:53.821Z,13.30
2017-09-10T02:04:21.288Z,13.30
2017-09-10T02:06:48.780Z,13.30
2017-09-10T02:09:16.282Z,13.10
2017-09-10T02:11:43.768Z,13.20
2017-09-10T02:14:11.262Z,13.20
2017-09-10T02:16:39.531Z,13.20
2017-09-10T02:19:07.022Z,13.20
2017-09-10T02:21:35.275Z,13.20
2017-09-10T02:24:02.753Z,13.20
2017-09-10T02:26:30.262Z,13.20
2017-09-10T02:28:57.746Z,13.20
2017-09-10T02:31:25.245Z,13.30
2017-09-10T02:33:52.735Z,13.20
2017-09-10T02:36:20.226Z,13.30
2017-09-10T02:38:47.706Z,13.20
2017-09-10T02:41:15.957Z,13.20
2017-09-10T02:43:43.445Z,13.20
2017-09-10T02:46:10.924Z,13.20
2017-09-10T02:48:38.399Z,13.20
2017-09-10T02:51:05.921Z,13.10
2017-09-10T02:53:33.405Z,13.00
2017-09-10T02:56:00.880Z,13.10
2017-09-10T02:58:28.380Z,13.20
2017-09-10T03:00:56.628Z,13.10
2017-09-10T03:03:24.522Z,13.10
2017-09-10T03:05:52.754Z,13.20
2017-09-10T03:08:20.232Z,13.10
2017-09-10T03:10:49.227Z,13.10
2017-09-10T03:13:16.747Z,13.00
2017-09-10T03:15:44.233Z,13.00
2017-09-10T03:18:11.725Z,13.10
2017-09-10T03:20:39.973Z,13.10
2017-09-10T03:23:07.476Z,13.10
2017-09-10T03:25:34.948Z,13.10
2017-09-10T03:28:02.448Z,13.20
2017-09-10T03:30:29.909Z,13.20
2017-09-10T03:32:58.173Z,13.30
2017-09-10T03:35:25.645Z,13.20
2017-09-10T03:37:53.118Z,13.20
2017-09-10T03:40:20.607Z,13.30
2017-09-10T03:42:48.126Z,13.30
2017-09-10T03:45:15.610Z,13.40
2017-09-10T03:47:43.098Z,13.30
2017-09-10T03:50:10.607Z,13.30
2017-09-10T03:52:38.854Z,13.40
2017-09-10T03:55:06.340Z,13.40
2017-09-10T03:57:33.841Z,13.50
2017-09-10T04:00:01.359Z,13.40
2017-09-10T04:02:29.620Z,13.40
2017-09-10T04:04:57.114Z,13.40
2017-09-10T04:07:24.608Z,13.40
2017-09-10T04:09:52.105Z,13.30
2017-09-10T04:12:20.377Z,13.30
2017-09-10T04:14:47.866Z,13.30
2017-09-10T04:17:15.402Z,13.40
2017-09-10T04:19:43.670Z,13.30
2017-09-10T04:22:11.273Z,13.20
2017-09-10T04:24:39.499Z,13.20
2017-09-10T04:27:06.983Z,13.30
2017-09-10T04:29:34.488Z,13.20
2017-09-10T04:32:01.973Z,13.30
2017-09-10T04:34:29.487Z,13.20
2017-09-10T04:36:57.810Z,13.30
2017-09-10T04:39:25.295Z,13.40
2017-09-10T04:41:52.780Z,13.40
2017-09-10T04:44:20.258Z,13.40
2017-09-10T04:46:54.961Z,13.40
2017-09-10T04:49:22.433Z,13.40
2017-09-10T04:51:49.930Z,13.40
2017-09-10T04:54:18.262Z,13.40
2017-09-10T04:56:45.749Z,13.40
2017-09-10T04:59:13.238Z,13.50
2017-09-10T05:01:46.634Z,13.50
2017-09-10T05:04:14.897Z,13.50
2017-09-10T05:06:42.394Z,13.50
2017-09-10T05:09:09.875Z,13.50
2017-09-10T05:11:37.360Z,13.50
2017-09-10T05:14:04.854Z,13.50
2017-09-10T05:16:33.125Z,13.50
2017-09-10T05:19:00.610Z,13.50
2017-09-10T05:21:28.121Z,13.40
2017-09-10T05:23:55.608Z,13.50
2017-09-10T05:26:23.886Z,13.50
2017-09-10T05:28:51.371Z,13.50
2017-09-10T05:31:18.842Z,13.40
2017-09-10T05:33:46.337Z,13.50
2017-09-10T05:36:15.028Z,13.50
2017-09-10T05:38:43.279Z,13.60
2017-09-10T05:41:10.760Z,13.60
2017-09-10T05:43:39.023Z,13.50
2017-09-10T05:46:06.531Z,13.50
2017-09-10T05:48:34.032Z,13.60
2017-09-10T05:51:01.518Z,13.50
2017-09-10T05:53:29.775Z,13.60
2017-09-10T05:55:57.279Z,13.60
2017-09-10T05:58:24.766Z,13.60
2017-09-10T06:00:52.254Z,13.60
2017-09-10T06:03:26.095Z,13.70
2017-09-10T06:05:53.580Z,13.60
2017-09-10T06:08:21.066Z,13.60
2017-09-10T06:10:48.549Z,13.50
2017-09-10T06:13:16.801Z,13.60
2017-09-10T06:15:44.291Z,13.60
2017-09-10T06:18:12.555Z,13.60
2017-09-10T06:20:40.806Z,13.60
2017-09-10T06:23:09.813Z,13.60
2017-09-10T06:25:37.294Z,13.60
2017-09-10T06:28:04.796Z,13.70
2017-09-10T06:30:32.272Z,13.70
2017-09-10T06:32:59.767Z,13.60
2017-09-10T06:35:28.014Z,13.80
2017-09-10T06:37:55.526Z,13.80
2017-09-10T06:40:23.012Z,13.80
2017-09-10T06:42:50.498Z,13.80
2017-09-10T06:45:19.768Z,13.80
2017-09-10T06:47:47.242Z,13.80
2017-09-10T06:50:22.118Z,13.80
2017-09-10T06:52:49.601Z,13.70
2017-09-10T06:55:17.108Z,13.70
2017-09-10T06:57:44.610Z,13.70
2017-09-10T07:00:12.102Z,13.60
2017-09-10T07:02:39.594Z,13.60
2017-09-10T07:05:07.133Z,13.70
2017-09-10T07:07:34.621Z,13.60
2017-09-10T07:10:02.125Z,13.60
2017-09-10T07:12:29.602Z,13.70
2017-09-10T07:14:57.865Z,13.90
2017-09-10T07:17:25.333Z,13.80
2017-09-10T07:19:55.772Z,13.80
2017-09-10T07:22:23.254Z,13.90
2017-09-10T07:24:50.748Z,13.80
2017-09-10T07:27:18.235Z,13.80
2017-09-10T07:29:45.734Z,13.90
2017-09-10T07:32:13.208Z,13.90
2017-09-10T07:34:40.697Z,14.00
2017-09-10T07:37:08.186Z,14.00
2017-09-10T07:39:35.706Z,13.90
2017-09-10T07:42:03.171Z,13.90
2017-09-10T07:44:30.639Z,13.90
2017-09-10T07:46:58.162Z,13.90
2017-09-10T07:49:25.645Z,13.90
2017-09-10T07:51:53.140Z,14.00
2017-09-10T07:54:20.625Z,13.90
2017-09-10T07:56:48.113Z,14.00
2017-09-10T07:59:15.597Z,14.00
2017-09-10T08:01:43.847Z,14.10
2017-09-10T08:04:11.338Z,14.10
2017-09-10T08:06:39.602Z,14.10
2017-09-10T08:09:07.072Z,14.10
2017-09-10T08:11:35.341Z,13.90
2017-09-10T08:14:03.611Z,13.80
2017-09-10T08:16:31.113Z,13.80
2017-09-10T08:18:58.593Z,13.90
2017-09-10T08:21:26.083Z,14.00
2017-09-10T08:23:54.338Z,14.00
2017-09-10T08:26:21.818Z,14.00
2017-09-10T08:28:49.289Z,14.10
2017-09-10T08:31:16.789Z,14.20
2017-09-10T08:33:44.253Z,14.10
2017-09-10T08:36:11.742Z,14.20
2017-09-10T08:38:39.319Z,14.50
2017-09-10T08:41:06.823Z,14.70
2017-09-10T08:43:34.303Z,14.70
2017-09-10T08:46:01.823Z,14.60
2017-09-10T08:48:29.298Z,14.70
2017-09-10T08:50:56.790Z,14.70
2017-09-10T08:53:24.266Z,14.70
2017-09-10T08:55:52.550Z,15.10
2017-09-10T08:58:20.796Z,15.40
2017-09-10T09:00:48.271Z,15.30
2017-09-10T09:03:15.774Z,15.80
2017-09-10T09:05:43.274Z,15.70
2017-09-10T09:08:10.774Z,15.70
2017-09-10T09:10:38.286Z,16.00
2017-09-10T09:13:05.780Z,15.80
2017-09-10T09:15:33.262Z,16.00
2017-09-10T09:18:00.764Z,16.20
2017-09-10T09:20:29.157Z,16.20
2017-09-10T09:22:56.651Z,16.20
2017-09-10T09:25:24.147Z,16.20
2017-09-10T09:27:51.630Z,16.40
2017-09-10T09:30:19.116Z,16.30
2017-09-10T09:32:46.609Z,16.40
2017-09-10T09:35:14.086Z,16.40
2017-09-10T09:37:41.576Z,16.30
2017-09-10T09:40:09.830Z,16.70
2017-09-10T09:42:38.842Z,17.00
2017-09-10T09:45:07.099Z,17.10
2017-09-10T09:47:34.588Z,17.10
2017-09-10T09:50:02.842Z,17.70
2017-09-10T09:52:31.110Z,17.80
2017-09-10T09:54:58.607Z,17.70
2017-09-10T09:57:26.098Z,18.00
2017-09-10T09:59:53.602Z,17.50
2017-09-10T10:02:21.086Z,17.60
2017-09-10T10:04:48.575Z,17.70
2017-09-10T10:07:16.050Z,17.60
2017-09-10T10:09:43.537Z,17.70
2017-09-10T10:12:11.027Z,17.80
2017-09-10T10:14:38.512Z,17.80
2017-09-10T10:17:05.980Z,18.20
2017-09-10T10:19:33.469Z,17.90
2017-09-10T10:22:01.713Z,17.80
2017-09-10T10:24:29.188Z,17.80
2017-09-10T10:26:56.678Z,17.80
2017-09-10T10:29:24.178Z,17.80
2017-09-10T10:31:51.656Z,17.50
2017-09-10T10:34:19.160Z,17.50
2017-09-10T10:36:46.636Z,17.70
2017-09-10T10:39:14.132Z,17.40
2017-09-10T10:41:42.397Z,17.60
2017-09-10T10:44:09.907Z,17.60
2017-09-10T10:46:37.375Z,17.60
2017-09-10T10:49:05.805Z,18.10
2017-09-10T10:51:33.272Z,18.00
2017-09-10T10:54:00.779Z,18.10
2017-09-10T10:56:28.270Z,18.20
2017-09-10T10:58:55.750Z,18.10
2017-09-10T11:01:24.016Z,17.90
2017-09-10T11:03:51.499Z,17.90
2017-09-10T11:06:19.751Z,17.70
2017-09-10T11:08:47.245Z,17.70
2017-09-10T11:11:15.131Z,17.80
2017-09-10T11:13:42.610Z,18.00
2017-09-10T11:16:11.138Z,18.00
2017-09-10T11:18:40.396Z,17.80
2017-09-10T11:21:07.889Z,17.70
2017-09-10T11:23:36.150Z,17.90
2017-09-10T11:26:03.636Z,17.90
2017-09-10T11:28:31.901Z,18.40
2017-09-10T11:30:59.391Z,18.40
2017-09-10T11:36:01.627Z,18.70
2017-09-10T11:38:29.117Z,18.70
2017-09-10T11:40:56.614Z,18.80
2017-09-10T11:43:24.103Z,18.70
2017-09-10T11:45:51.590Z,18.70
2017-09-10T11:48:19.065Z,18.80
2017-09-10T11:50:46.558Z,19.00
2017-09-10T11:53:14.069Z,18.80
2017-09-10T11:55:41.578Z,19.00
2017-09-10T11:58:09.061Z,18.80
2017-09-10T12:00:37.306Z,18.40
2017-09-10T12:03:04.798Z,18.40
2017-09-10T12:05:33.046Z,18.00
2017-09-10T12:08:00.544Z,18.00
2017-09-10T12:10:28.021Z,17.80
2017-09-10T12:12:55.525Z,17.80
2017-09-10T12:15:23.783Z,17.80
2017-09-10T12:17:51.271Z,17.80
2017-09-10T12:20:18.761Z,17.70
2017-09-10T12:22:46.260Z,17.70
2017-09-10T12:25:13.741Z,17.30
2017-09-10T12:27:41.990Z,17.50
2017-09-10T12:30:09.495Z,17.50
2017-09-10T12:32:37.733Z,17.50
2017-09-10T12:35:05.243Z,17.50
2017-09-10T12:37:32.721Z,17.50
2017-09-10T12:40:00.224Z,17.40
2017-09-10T12:42:27.714Z,17.30
2017-09-10T12:44:55.227Z,17.30
2017-09-10T12:47:22.700Z,17.30
2017-09-10T12:49:50.188Z,17.30
2017-09-10T12:52:17.666Z,17.30
2017-09-10T12:54:45.153Z,17.30
2017-09-10T12:57:12.663Z,17.10
2017-09-10T12:59:40.169Z,17.20
2017-09-10T13:02:07.661Z,16.90
2017-09-10T13:04:35.922Z,17.00
2017-09-10T13:07:03.408Z,16.90
2017-09-10T13:09:31.657Z,17.00
2017-09-10T13:11:59.162Z,16.90
2017-09-10T13:14:26.652Z,17.00
2017-09-10T13:16:54.133Z,17.00
2017-09-10T13:19:21.695Z,17.00
2017-09-10T13:21:49.165Z,17.00
2017-09-10T13:24:18.191Z,16.90
2017-09-10T13:26:45.669Z,16.80
2017-09-10T13:29:13.142Z,16.90
2017-09-10T13:31:40.649Z,16.90
2017-09-10T13:34:08.140Z,16.90
2017-09-10T13:36:35.636Z,16.90
2017-09-10T13:39:03.114Z,16.90
2017-09-10T13:41:31.376Z,16.80
2017-09-10T13:43:59.638Z,16.80
2017-09-10T13:46:27.148Z,16.80
2017-09-10T13:48:54.639Z,16.80
2017-09-10T13:51:22.137Z,16.80
2017-09-10T13:53:50.374Z,17.00
2017-09-10T13:56:17.865Z,17.00
2017-09-10T13:58:46.105Z,17.40
2017-09-10T14:01:13.600Z,17.40
2017-09-10T14:03:41.849Z,17.90
2017-09-10T14:06:09.338Z,17.90
2017-09-10T14:08:37.591Z,18.10
2017-09-10T14:11:05.854Z,18.20
2017-09-10T14:13:33.362Z,18.10
2017-09-10T14:16:00.828Z,18.00
2017-09-10T14:18:28.326Z,17.90
2017-09-10T14:20:55.814Z,17.70
2017-09-10T14:23:24.065Z,17.70
2017-09-10T14:25:51.541Z,17.70
2017-09-10T14:28:19.039Z,17.80
2017-09-10T14:30:46.530Z,18.00
2017-09-10T14:33:14.036Z,18.20
2017-09-10T14:35:41.504Z,18.50
2017-09-10T14:38:09.005Z,18.60
2017-09-10T14:40:36.485Z,18.70
2017-09-10T14:43:03.979Z,18.80
2017-09-10T14:45:31.466Z,18.90
2017-09-10T14:47:58.966Z,18.80
2017-09-10T14:50:26.499Z,18.80
2017-09-10T14:52:54.066Z,18.90
2017-09-10T14:55:21.554Z,18.80
2017-09-10T14:57:49.808Z,18.90
2017-09-10T15:00:17.296Z,18.90
2017-09-10T15:02:44.824Z,19.00
2017-09-10T15:05:12.303Z,19.10
2017-09-10T15:07:39.794Z,19.20
2017-09-10T15:10:07.288Z,19.30
2017-09-10T15:12:34.775Z,19.30
2017-09-10T15:15:03.056Z,19.10
2017-09-10T15:17:31.301Z,19.10
2017-09-10T15:19:58.781Z,19.10
2017-09-10T15:22:27.037Z,19.20
2017-09-10T15:24:54.527Z,19.20
2017-09-10T15:27:22.788Z,19.00
2017-09-10T15:29:50.266Z,19.00
2017-09-10T15:32:17.737Z,19.00
2017-09-10T15:34:45.251Z,18.90
2017-09-10T15:37:13.730Z,18.70
2017-09-10T15:39:41.226Z,18.70
2017-09-10T15:42:08.700Z,18.60
2017-09-10T15:44:36.208Z,18.50
2017-09-10T15:47:03.678Z,18.40
2017-09-10T15:49:37.675Z,18.30
2017-09-10T15:52:05.151Z,18.30
2017-09-10T15:54:33.393Z,18.10
2017-09-10T15:57:00.883Z,18.10
2017-09-10T15:59:29.183Z,18.20
2017-09-10T16:01:56.662Z,18.20
2017-09-10T16:04:24.136Z,18.20
2017-09-10T16:06:51.631Z,18.20
2017-09-10T16:09:19.862Z,18.10
2017-09-10T16:11:47.367Z,18.00
2017-09-10T16:14:14.861Z,18.00
2017-09-10T16:16:42.377Z,17.90
2017-09-10T16:19:16.008Z,17.90
2017-09-10T16:21:43.493Z,17.90
2017-09-10T16:24:11.006Z,17.90
2017-09-10T16:26:39.508Z,18.00
2017-09-10T16:29:06.993Z,18.30
2017-09-10T16:31:34.482Z,18.50
2017-09-10T16:34:02.749Z,19.20
2017-09-10T16:36:31.749Z,19.40
2017-09-10T16:38:59.260Z,19.40
2017-09-10T16:41:26.759Z,19.90
2017-09-10T16:43:54.236Z,20.50
2017-09-10T16:46:21.741Z,20.70
2017-09-10T16:48:49.233Z,21.10
2017-09-10T16:51:16.743Z,20.90
2017-09-10T16:53:45.068Z,20.90
2017-09-10T16:56:12.569Z,21.70
2017-09-10T16:58:40.819Z,21.60
2017-09-10T17:01:08.301Z,21.60
2017-09-10T17:03:35.803Z,21.00
2017-09-10T17:06:03.290Z,20.40
2017-09-10T17:08:30.793Z,19.90
2017-09-10T17:10:58.298Z,19.40
2017-09-10T17:13:25.828Z,19.10
2017-09-10T17:15:53.305Z,18.70
2017-09-10T17:18:20.791Z,18.50
2017-09-10T17:20:49.024Z,18.20
2017-09-10T17:23:16.515Z,18.20
2017-09-10T17:25:44.002Z,18.10
2017-09-10T17:28:11.482Z,18.00
2017-09-10T17:30:38.969Z,17.80
2017-09-10T17:33:06.476Z,17.70
2017-09-10T17:35:33.949Z,17.60
2017-09-10T17:38:01.474Z,17.40
2017-09-10T17:40:29.737Z,17.10
2017-09-10T17:42:57.993Z,16.90
2017-09-10T17:45:25.486Z,16.90
2017-09-10T17:47:52.985Z,16.90
2017-09-10T17:50:20.497Z,16.70
2017-09-10T17:52:48.751Z,16.50
2017-09-10T17:55:16.243Z,16.50
2017-09-10T17:57:44.492Z,16.30
2017-09-10T18:00:11.981Z,16.30
2017-09-10T18:02:39.471Z,16.20
2017-09-10T18:05:06.951Z,16.10
2017-09-10T18:07:34.427Z,16.00
2017-09-10T18:10:01.925Z,16.00
2017-09-10T18:12:29.409Z,15.90
2017-09-10T18:14:56.914Z,15.90
2017-09-10T18:17:25.153Z,15.70
2017-09-10T18:19:52.660Z,15.70
2017-09-10T18:22:20.901Z,15.40
2017-09-10T18:24:48.393Z,15.40
2017-09-10T18:27:15.875Z,15.30
2017-09-10T18:29:43.382Z,15.30
2017-09-10T18:32:10.852Z,15.40
2017-09-10T18:34:39.159Z,15.20
2017-09-10T18:37:07.406Z,15.20
2017-09-10T18:39:34.881Z,15.20
2017-09-10T18:42:03.150Z,15.10
2017-09-10T18:44:31.407Z,15.10
2017-09-10T18:46:59.665Z,15.10
2017-09-10T18:49:27.153Z,15.10
2017-09-10T18:51:55.420Z,15.10
2017-09-10T18:54:22.893Z,15.10
2017-09-10T18:56:51.158Z,14.90
2017-09-10T18:59:19.412Z,14.90
2017-09-10T19:01:46.913Z,14.90
2017-09-10T19:04:14.385Z,14.80
2017-09-10T19:06:41.889Z,14.90
2017-09-10T19:09:09.369Z,14.90
2017-09-10T19:11:36.849Z,14.80
2017-09-10T19:14:04.328Z,14.70
2017-09-10T19:16:31.825Z,14.70
2017-09-10T19:18:59.319Z,14.60
2017-09-10T19:21:26.829Z,14.60
2017-09-10T19:23:54.313Z,14.50
2017-09-10T19:26:21.826Z,14.60
2017-09-10T19:28:49.306Z,14.50
2017-09-10T19:31:16.789Z,14.40
2017-09-10T19:33:45.057Z,14.50
2017-09-10T19:36:12.550Z,14.40
2017-09-10T19:38:40.050Z,14.40
2017-09-10T19:41:07.541Z,14.40
2017-09-10T19:43:35.796Z,14.30
2017-09-10T19:46:03.297Z,14.30
2017-09-10T19:48:30.791Z,14.30
2017-09-10T19:50:58.270Z,14.30
2017-09-10T19:53:25.775Z,14.20
2017-09-10T19:55:53.256Z,14.20
2017-09-10T19:58:20.746Z,14.20
2017-09-10T20:00:48.253Z,14.20
2017-09-10T20:03:15.738Z,14.10
2017-09-10T20:05:43.213Z,14.00
2017-09-10T20:08:10.717Z,14.10
2017-09-10T20:10:38.217Z,14.10
2017-09-10T20:13:05.713Z,14.00
2017-09-10T20:15:33.965Z,14.00
2017-09-10T20:18:01.459Z,14.00
2017-09-10T20:20:29.704Z,13.90
2017-09-10T20:22:57.220Z,13.90
2017-09-10T20:25:24.709Z,13.90
2017-09-10T20:27:52.197Z,13.80
2017-09-10T20:30:20.456Z,13.80
2017-09-10T20:32:47.949Z,13.80
2017-09-10T20:35:16.676Z,13.70
2017-09-10T20:37:44.167Z,13.70
2017-09-10T20:40:12.430Z,13.70
2017-09-10T20:42:39.927Z,13.70
2017-09-10T20:45:08.183Z,13.70
2017-09-10T20:47:35.671Z,13.70
2017-09-10T20:50:03.162Z,13.70
2017-09-10T20:52:30.659Z,13.70
2017-09-10T20:54:58.924Z,13.60
2017-09-10T20:57:26.415Z,13.60
2017-09-10T20:59:54.666Z,13.70
2017-09-10T21:02:22.150Z,13.60
2017-09-10T21:04:50.402Z,13.60
2017-09-10T21:07:18.663Z,13.60
2017-09-10T21:09:46.153Z,13.60
2017-09-10T21:12:14.893Z,13.70
2017-09-10T21:17:35.951Z,13.50
2017-09-10T21:20:04.206Z,13.50
2017-09-10T21:22:32.463Z,13.50
2017-09-10T21:24:59.981Z,13.50
2017-09-10T21:27:27.462Z,13.50
2017-09-10T21:29:56.844Z,13.60
2017-09-10T21:32:24.325Z,13.60
2017-09-10T21:34:51.831Z,13.60
2017-09-10T21:37:20.088Z,13.50
2017-09-10T21:39:47.580Z,13.60
2017-09-10T21:42:15.061Z,13.50
2017-09-10T21:44:42.564Z,13.50
2017-09-10T21:47:10.058Z,13.50
2017-09-10T21:49:38.298Z,13.50
2017-09-10T21:52:06.898Z,13.50
2017-09-10T21:54:34.370Z,13.50
2017-09-10T21:57:01.872Z,13.50
2017-09-10T21:59:29.353Z,13.50
2017-09-10T22:01:56.859Z,13.50
2017-09-10T22:04:24.352Z,13.50
2017-09-10T22:06:51.858Z,13.50
2017-09-10T22:09:19.345Z,13.60
2017-09-10T22:11:46.830Z,13.50
2017-09-10T22:14:14.305Z,13.50
2017-09-10T22:16:41.821Z,13.50
2017-09-10T22:19:09.308Z,13.50
2017-09-10T22:21:36.818Z,13.40
2017-09-10T22:24:05.070Z,13.30
2017-09-10T22:26:32.557Z,13.30
2017-09-10T22:29:00.816Z,13.20
2017-09-10T22:31:28.306Z,13.20
2017-09-10T22:33:55.777Z,13.20
2017-09-10T22:36:23.254Z,13.10
2017-09-10T22:38:50.733Z,13.20
2017-09-10T22:41:18.209Z,13.10
2017-09-10T22:43:46.472Z,13.10
2017-09-10T22:46:13.953Z,13.20
2017-09-10T22:48:42.221Z,13.20
2017-09-10T22:51:09.697Z,13.20
2017-09-10T22:53:37.955Z,13.20
2017-09-10T22:56:06.200Z,13.20
2017-09-10T22:58:33.680Z,13.20
2017-09-10T23:01:01.930Z,13.10
2017-09-10T23:03:29.518Z,13.10
2017-09-10T23:05:57.760Z,13.10
2017-09-10T23:08:25.354Z,13.10
2017-09-10T23:10:53.610Z,13.00
2017-09-10T23:13:21.092Z,13.00
2017-09-10T23:15:49.366Z,12.80
2017-09-10T23:18:16.881Z,12.80
2017-09-10T23:20:44.376Z,12.70
2017-09-10T23:23:11.863Z,12.60
2017-09-10T23:25:39.380Z,12.70
2017-09-10T23:28:06.875Z,12.80
2017-09-10T23:30:34.368Z,12.80
2017-09-10T23:33:01.846Z,12.90
2017-09-10T23:35:29.333Z,12.90
2017-09-10T23:37:57.592Z,12.80
2017-09-10T23:40:25.849Z,12.80
2017-09-10T23:42:53.326Z,12.70
2017-09-10T23:45:20.836Z,12.80
2017-09-10T23:47:48.314Z,12.70
2017-09-10T23:50:15.801Z,12.60
2017-09-10T23:52:43.284Z,12.60
2017-09-10T23:55:11.529Z,12.50
2017-09-10T23:57:39.003Z,12.50
